createdAt,value
2022-08-30T00:00:24.879Z,1020.1
2022-08-30T00:15:20.724Z,1020.3
2022-08-30T00:30:17.075Z,1020.3
2022-08-30T00:45:12.509Z,1020.3
2022-08-30T01:00:08.593Z,1020.4
2022-08-30T01:15:04.338Z,1020.5
2022-08-30T01:30:00.187Z,1020.7
2022-08-30T01:44:56.347Z,1020.6
2022-08-30T01:59:51.944Z,1020.6
2022-08-30T02:14:48.010Z,1020.6
2022-08-30T02:29:44.467Z,1020.6
2022-08-30T02:44:40.763Z,1020.5
2022-08-30T02:59:36.490Z,1020.4
2022-08-30T03:14:32.411Z,1020.5
2022-08-30T03:29:28.661Z,1020.5
2022-08-30T03:44:24.743Z,1020.3
2022-08-30T03:59:20.760Z,1020.4
2022-08-30T04:14:16.973Z,1020.4
2022-08-30T04:29:13.230Z,1020.4
2022-08-30T04:44:09.259Z,1020.5
2022-08-30T04:59:05.315Z,1020.6
2022-08-30T05:14:00.999Z,1020.7
2022-08-30T05:28:57.574Z,1020.9
2022-08-30T05:43:54.152Z,1021
2022-08-30T05:58:50.875Z,1021
2022-08-30T06:13:47.081Z,1020.8
2022-08-30T06:28:43.521Z,1020.7
2022-08-30T06:43:40.117Z,1020.6
2022-08-30T06:58:36.774Z,1020.7
2022-08-30T07:13:32.777Z,1020.9
2022-08-30T07:28:29.247Z,1020.9
2022-08-30T07:43:25.986Z,1020.9
2022-08-30T07:58:22.809Z,1020.8
2022-08-30T08:13:19.590Z,1020.8
2022-08-30T08:28:16.408Z,1020.7
2022-08-30T08:43:13.446Z,1020.7
2022-08-30T08:58:10.560Z,1020.5
2022-08-30T09:13:07.802Z,1020.5
2022-08-30T09:28:05.262Z,1020.3
2022-08-30T09:43:02.870Z,1020.2
2022-08-30T09:57:59.982Z,1020
2022-08-30T10:12:57.365Z,1019.8
2022-08-30T10:27:54.496Z,1019.7
2022-08-30T10:42:52.172Z,1019.7
2022-08-30T10:57:48.876Z,1019.5
2022-08-30T11:12:45.583Z,1019.4
2022-08-30T11:27:42.893Z,1019.3
2022-08-30T11:57:36.437Z,1019
2022-08-30T12:12:33.265Z,1018.8
2022-08-30T12:27:32.478Z,1018.8
2022-08-30T12:42:26.816Z,1018.6
2022-08-30T12:57:34.808Z,1018.6
2022-08-30T13:12:19.130Z,1018.5
2022-08-30T13:27:15.359Z,1018.4
2022-08-30T13:57:06.384Z,1018.2
2022-08-30T14:12:02.768Z,1018.1
2022-08-30T14:26:58.292Z,1017.9
2022-08-30T14:41:53.995Z,1017.8
2022-08-30T14:56:49.697Z,1017.8
2022-08-30T15:11:46.885Z,1017.6
2022-08-30T15:26:41.472Z,1017.5
2022-08-30T15:41:37.593Z,1017.3
2022-08-30T15:56:33.396Z,1017.2
2022-08-30T16:11:29.397Z,1017.3
2022-08-30T16:26:25.746Z,1017.1
2022-08-30T16:41:21.904Z,1017.1
2022-08-30T16:56:18.106Z,1017
2022-08-30T17:11:14.358Z,1017.2
2022-08-30T17:26:10.594Z,1017.2
2022-08-30T17:41:06.342Z,1017.4
2022-08-30T17:56:02.137Z,1017.5
2022-08-30T18:10:57.503Z,1017.7
2022-08-30T18:25:53.071Z,1017.9
2022-08-30T18:40:48.825Z,1018
2022-08-30T18:55:44.255Z,1018.1
2022-08-30T19:10:40.236Z,1018.1
2022-08-30T19:25:36.626Z,1018.2
2022-08-30T19:40:32.737Z,1018.2
2022-08-30T19:55:29.972Z,1018.3
2022-08-30T20:10:25.876Z,1018.5
2022-08-30T20:25:21.566Z,1018.6
2022-08-30T20:40:18.134Z,1018.6
2022-08-30T20:55:14.364Z,1018.6
2022-08-30T22:09:54.615Z,1019.3
2022-08-30T22:24:50.923Z,1019.4
2022-08-30T22:39:46.735Z,1019.4
2022-08-30T22:54:43.232Z,1019.4
2022-08-30T23:09:39.418Z,1019.5
2022-08-30T23:24:35.580Z,1019.5
2022-08-30T23:39:31.948Z,1019.6
2022-08-30T23:54:28.184Z,1019.5
